Terminal Aerodrome Forecast
Issued by NWS

Home | Current Version | Previous Version | Text Only | Print | Product List | Glossary On
Versions: 1 2 3 4 5 6 7 8 9 10 11 12 13 14 15 16 17 18 19 20 21 22 23 24 25 26 27 28 29 30 31 32 33 34 35 36 37 38 39 40 41 42 43 44 45 46 47 48 49 50
000
FTUS45 KBOU 290021 AAA
TAFBJC
TAF AMD
KBJC 290021Z 2900/2924 07005KT P6SM BKN008 OVC020
      TEMPO 2900/2902 2SM -DZ BKN005
     FM290200 10009KT P6SM VCSH BKN007 OVC015
      TEMPO 2903/2905 2SM -SN BR OVC006
     FM290600 09009KT 1SM -SN BR BKN004 OVC009
     FM291200 07010KT 3/4SM -SN BR OVC004
     FM291800 04010KT 3/4SM -SNRA BR OVC005
     FM292300 02011KT 1 1/2SM -SN BR OVC010=

USA.gov is the U.S. government's official web portal to all federal, state and local government web resources and services.